createdAt,value
2022-08-03T00:00:39.581Z,99.80
2022-08-03T00:03:08.460Z,99.90
2022-08-03T00:05:38.329Z,99.90
2022-08-03T00:08:06.823Z,99.90
2022-08-03T00:10:35.518Z,99.90
2022-08-03T00:13:04.517Z,99.90
2022-08-03T00:15:32.830Z,99.90
2022-08-03T00:18:01.448Z,99.90
2022-08-03T00:20:29.917Z,99.90
2022-08-03T00:23:00.250Z,99.90
2022-08-03T00:25:28.893Z,99.90
2022-08-03T00:27:57.134Z,99.90
2022-08-03T00:30:30.939Z,99.90
2022-08-03T00:33:00.417Z,99.90
2022-08-03T00:35:50.021Z,99.90
2022-08-03T00:38:19.646Z,99.90
2022-08-03T00:40:48.505Z,99.90
2022-08-03T00:43:16.905Z,99.90
2022-08-03T00:45:45.730Z,99.90
2022-08-03T00:48:29.776Z,99.90
2022-08-03T00:51:02.395Z,99.90
2022-08-03T00:53:32.605Z,99.90
2022-08-03T00:56:01.342Z,99.90
2022-08-03T00:58:30.223Z,99.90
2022-08-03T01:00:58.993Z,99.90
2022-08-03T01:03:27.389Z,99.90
2022-08-03T01:06:01.238Z,99.90
2022-08-03T01:08:39.401Z,99.90
2022-08-03T01:11:16.373Z,99.90
2022-08-03T01:14:01.462Z,99.90
2022-08-03T01:16:53.002Z,99.90
2022-08-03T01:19:40.517Z,99.90
2022-08-03T01:22:31.817Z,99.90
2022-08-03T01:25:07.057Z,99.90
2022-08-03T01:27:52.929Z,99.90
2022-08-03T01:30:25.253Z,99.90
2022-08-03T01:33:01.997Z,99.90
2022-08-03T01:35:38.411Z,99.90
2022-08-03T01:38:12.612Z,99.90
2022-08-03T01:40:42.689Z,99.90
2022-08-03T01:44:28.174Z,99.90
2022-08-03T01:46:07.835Z,99.90
2022-08-03T01:48:39.143Z,99.90
2022-08-03T01:51:09.232Z,99.90
2022-08-03T01:53:40.220Z,99.90
2022-08-03T01:56:09.901Z,99.90
2022-08-03T01:58:39.618Z,99.90
2022-08-03T02:01:11.411Z,99.90
2022-08-03T02:03:56.672Z,99.90
2022-08-03T02:07:00.195Z,99.90
2022-08-03T02:09:24.499Z,99.90
2022-08-03T02:11:54.468Z,99.90
2022-08-03T02:14:24.469Z,99.90
2022-08-03T02:16:55.744Z,99.90
2022-08-03T02:19:26.065Z,99.90
2022-08-03T02:21:57.217Z,99.90
2022-08-03T02:24:30.668Z,99.90
2022-08-03T02:27:01.377Z,99.90
2022-08-03T02:29:39.964Z,99.90
2022-08-03T02:32:15.881Z,99.90
2022-08-03T02:34:48.523Z,99.90
2022-08-03T02:37:20.651Z,99.90
2022-08-03T02:39:53.336Z,99.90
2022-08-03T02:42:24.517Z,99.90
2022-08-03T02:44:56.432Z,99.90
2022-08-03T02:47:28.753Z,99.90
2022-08-03T02:50:19.202Z,99.90
2022-08-03T02:52:50.660Z,99.90
2022-08-03T02:55:22.620Z,99.90
2022-08-03T02:57:51.990Z,99.90
2022-08-03T03:00:28.156Z,99.90
2022-08-03T03:03:00.880Z,99.90
2022-08-03T03:05:53.089Z,99.90
2022-08-03T03:08:26.059Z,99.90
2022-08-03T03:11:00.543Z,99.90
2022-08-03T03:13:30.186Z,99.90
2022-08-03T03:16:02.728Z,99.90
2022-08-03T03:18:34.075Z,99.90
2022-08-03T03:21:04.757Z,99.90
2022-08-03T03:23:34.984Z,99.90
2022-08-03T03:26:04.299Z,99.90
2022-08-03T03:28:37.455Z,99.90
2022-08-03T03:31:06.576Z,99.90
2022-08-03T03:33:37.392Z,99.90
2022-08-03T03:36:07.468Z,99.90
2022-08-03T03:38:36.240Z,99.90
2022-08-03T03:41:06.299Z,99.90
2022-08-03T03:43:35.164Z,99.90
2022-08-03T03:46:03.800Z,99.90
2022-08-03T03:48:32.362Z,99.90
2022-08-03T03:51:03.376Z,99.90
2022-08-03T03:53:31.814Z,99.90
2022-08-03T03:56:02.533Z,99.90
2022-08-03T03:58:33.134Z,99.90
2022-08-03T04:01:02.499Z,99.90
2022-08-03T04:03:31.063Z,99.90
2022-08-03T04:06:17.374Z,99.90
2022-08-03T04:09:04.405Z,99.90
2022-08-03T04:11:39.467Z,99.90
2022-08-03T04:14:11.986Z,99.90
2022-08-03T04:16:45.105Z,99.90
2022-08-03T04:19:21.167Z,99.90
2022-08-03T04:21:57.191Z,99.90
2022-08-03T04:24:31.969Z,99.90
2022-08-03T04:27:04.094Z,99.90
2022-08-03T04:29:36.233Z,99.90
2022-08-03T04:32:10.436Z,99.90
2022-08-03T04:34:39.202Z,99.90
2022-08-03T04:37:13.786Z,99.90
2022-08-03T04:39:44.177Z,99.90
2022-08-03T04:42:15.375Z,99.90
2022-08-03T04:44:46.837Z,99.90
2022-08-03T04:47:15.950Z,99.90
2022-08-03T04:49:44.566Z,99.90
2022-08-03T04:52:13.717Z,99.90
2022-08-03T04:54:50.276Z,99.90
2022-08-03T04:57:23.098Z,99.90
2022-08-03T05:00:01.372Z,99.90
2022-08-03T05:02:35.086Z,99.90
2022-08-03T05:05:04.104Z,99.90
2022-08-03T05:07:35.760Z,99.90
2022-08-03T05:10:16.340Z,99.90
2022-08-03T05:12:46.649Z,99.90
2022-08-03T05:15:16.210Z,99.90
2022-08-03T05:17:44.885Z,99.90
2022-08-03T05:20:16.573Z,99.90
2022-08-03T05:22:47.777Z,99.90
2022-08-03T05:25:20.620Z,99.90
2022-08-03T05:27:51.127Z,99.90
2022-08-03T05:30:30.467Z,99.90
2022-08-03T05:33:03.135Z,99.90
2022-08-03T05:36:02.211Z,99.90
2022-08-03T05:38:23.993Z,99.90
2022-08-03T05:41:22.507Z,99.90
2022-08-03T05:43:48.245Z,99.90
2022-08-03T05:46:17.050Z,99.90
2022-08-03T05:48:45.435Z,99.90
2022-08-03T05:51:14.101Z,99.90
2022-08-03T05:53:44.177Z,99.90
2022-08-03T05:56:16.208Z,99.90
2022-08-03T05:58:46.611Z,99.90
2022-08-03T06:01:15.500Z,99.90
2022-08-03T06:03:44.107Z,99.90
2022-08-03T06:06:12.592Z,99.90
2022-08-03T06:08:42.141Z,99.90
2022-08-03T06:11:10.814Z,99.90
2022-08-03T06:13:41.216Z,99.90
2022-08-03T06:16:10.932Z,99.90
2022-08-03T06:18:40.443Z,99.90
2022-08-03T06:21:15.459Z,99.90
2022-08-03T06:23:54.601Z,99.90
2022-08-03T06:26:26.326Z,99.90
2022-08-03T06:28:56.833Z,99.90
2022-08-03T06:31:32.860Z,99.90
2022-08-03T06:34:34.937Z,99.90
2022-08-03T06:36:53.530Z,99.90
2022-08-03T06:39:23.509Z,99.90
2022-08-03T06:41:54.178Z,99.90
2022-08-03T06:44:25.003Z,99.90
2022-08-03T06:46:53.741Z,99.90
2022-08-03T06:49:22.152Z,99.90
2022-08-03T06:52:04.224Z,99.90
2022-08-03T06:54:37.908Z,99.90
2022-08-03T06:57:08.549Z,99.90
2022-08-03T07:00:08.022Z,99.90
2022-08-03T07:02:28.204Z,99.90
2022-08-03T07:04:57.865Z,99.90
2022-08-03T07:07:26.830Z,99.90
2022-08-03T07:09:57.808Z,99.90
2022-08-03T07:12:28.168Z,99.90
2022-08-03T07:15:02.142Z,99.50
2022-08-03T07:17:35.788Z,99.80
2022-08-03T07:20:07.315Z,99.90
2022-08-03T07:22:36.547Z,99.70
2022-08-03T07:25:05.764Z,99.00
2022-08-03T07:27:34.409Z,98.90
2022-08-03T07:30:08.222Z,98.80
2022-08-03T07:32:37.012Z,98.10
2022-08-03T07:35:25.007Z,97.90
2022-08-03T07:37:54.887Z,98.00
2022-08-03T07:40:23.880Z,97.70
2022-08-03T07:42:58.247Z,97.80
2022-08-03T07:45:28.440Z,97.50
2022-08-03T07:47:56.853Z,97.00
2022-08-03T07:50:25.321Z,96.60
2022-08-03T07:52:56.095Z,96.10
2022-08-03T07:55:27.926Z,95.70
2022-08-03T07:58:05.268Z,95.40
2022-08-03T08:00:35.350Z,95.10
2022-08-03T08:03:03.899Z,94.10
2022-08-03T08:05:32.698Z,93.70
2022-08-03T08:08:01.625Z,93.40
2022-08-03T08:10:31.004Z,93.10
2022-08-03T08:12:59.968Z,92.40
2022-08-03T08:15:28.426Z,91.60
2022-08-03T08:18:01.186Z,91.00
2022-08-03T08:20:32.114Z,88.80
2022-08-03T08:23:02.137Z,87.40
2022-08-03T08:25:32.575Z,86.70
2022-08-03T08:28:29.190Z,85.60
2022-08-03T08:30:52.244Z,85.40
2022-08-03T08:33:23.148Z,83.70
2022-08-03T08:35:54.519Z,85.00
2022-08-03T08:38:23.486Z,81.90
2022-08-03T08:40:52.060Z,80.10
2022-08-03T08:43:20.403Z,81.70
2022-08-03T08:45:51.298Z,79.70
2022-08-03T08:48:24.918Z,75.80
2022-08-03T08:50:54.948Z,76.50
2022-08-03T08:53:27.162Z,79.40
2022-08-03T08:56:01.668Z,75.90
2022-08-03T08:58:33.352Z,74.70
2022-08-03T09:01:01.986Z,73.90
2022-08-03T09:03:33.833Z,74.60
2022-08-03T09:06:03.333Z,74.70
2022-08-03T09:08:33.114Z,73.50
2022-08-03T09:11:01.903Z,70.70
2022-08-03T09:13:30.520Z,70.20
2022-08-03T09:16:13.299Z,68.50
2022-08-03T09:18:44.586Z,65.20
2022-08-03T09:21:31.594Z,65.40
2022-08-03T09:24:05.266Z,65.90
2022-08-03T09:26:36.486Z,67.20
2022-08-03T09:29:13.125Z,64.70
2022-08-03T09:31:45.216Z,65.10
2022-08-03T09:34:16.550Z,64.60
2022-08-03T09:36:46.909Z,58.80
2022-08-03T09:39:17.005Z,59.40
2022-08-03T09:41:48.221Z,58.70
2022-08-03T09:44:25.824Z,60.60
2022-08-03T09:46:57.178Z,62.10
2022-08-03T09:49:27.146Z,61.40
2022-08-03T09:52:33.873Z,59.40
2022-08-03T09:54:45.545Z,57.10
2022-08-03T09:57:24.781Z,59.00
2022-08-03T10:00:04.546Z,59.40
2022-08-03T10:02:41.998Z,58.20
2022-08-03T10:05:19.984Z,59.30
2022-08-03T10:07:50.686Z,57.60
2022-08-03T10:10:30.971Z,55.50
2022-08-03T10:13:02.273Z,55.40
2022-08-03T10:16:21.815Z,55.60
2022-08-03T10:18:19.749Z,57.60
2022-08-03T10:20:53.288Z,58.30
2022-08-03T10:23:25.013Z,54.10
2022-08-03T10:25:59.250Z,53.20
2022-08-03T10:28:35.671Z,53.50
2022-08-03T10:31:07.679Z,55.10
2022-08-03T10:33:50.688Z,58.00
2022-08-03T10:36:25.229Z,58.30
2022-08-03T10:38:54.681Z,57.40
2022-08-03T10:41:26.349Z,57.70
2022-08-03T10:43:59.744Z,56.90
2022-08-03T10:46:29.637Z,54.60
2022-08-03T10:48:58.923Z,56.00
2022-08-03T10:51:32.261Z,55.40
2022-08-03T10:54:01.898Z,55.50
2022-08-03T10:56:58.593Z,54.70
2022-08-03T11:00:03.403Z,55.50
2022-08-03T11:03:06.274Z,55.20
2022-08-03T11:05:37.056Z,54.60
2022-08-03T11:08:24.991Z,53.80
2022-08-03T11:10:56.106Z,53.60
2022-08-03T11:13:59.259Z,51.90
2022-08-03T11:16:28.921Z,51.80
2022-08-03T11:18:59.742Z,51.10
2022-08-03T11:22:00.181Z,50.70
2022-08-03T11:25:04.594Z,45.80
2022-08-03T11:27:34.445Z,46.50
2022-08-03T11:30:06.767Z,44.50
2022-08-03T11:32:59.812Z,46.70
2022-08-03T11:35:31.102Z,43.80
2022-08-03T11:38:13.601Z,45.10
2022-08-03T11:40:45.378Z,44.40
2022-08-03T11:43:47.064Z,44.10
2022-08-03T11:46:29.423Z,46.20
2022-08-03T11:49:10.789Z,44.90
2022-08-03T11:51:40.933Z,42.90
2022-08-03T11:54:09.564Z,41.50
2022-08-03T11:56:50.189Z,42.30
2022-08-03T11:59:22.351Z,40.90
2022-08-03T12:01:51.412Z,42.40
2022-08-03T12:04:20.404Z,41.60
2022-08-03T12:07:01.429Z,41.70
2022-08-03T12:09:29.928Z,41.10
2022-08-03T12:12:01.146Z,41.10
2022-08-03T12:14:50.041Z,41.10
2022-08-03T12:17:19.659Z,41.10
2022-08-03T12:19:49.145Z,43.30
2022-08-03T12:22:17.933Z,41.00
2022-08-03T12:24:47.620Z,41.70
2022-08-03T12:27:26.654Z,41.00
2022-08-03T12:29:58.507Z,40.80
2022-08-03T12:32:28.364Z,41.60
2022-08-03T12:35:00.857Z,41.10
2022-08-03T12:37:33.196Z,40.60
2022-08-03T12:40:10.245Z,40.60
2022-08-03T12:42:41.557Z,39.50
2022-08-03T12:45:24.977Z,40.10
2022-08-03T12:47:54.951Z,40.40
2022-08-03T12:50:29.291Z,38.60
2022-08-03T12:52:58.895Z,39.10
2022-08-03T12:55:57.020Z,39.80
2022-08-03T12:58:36.633Z,40.70
2022-08-03T13:01:09.491Z,38.60
2022-08-03T13:03:45.873Z,39.50
2022-08-03T13:06:21.466Z,40.40
2022-08-03T13:09:02.153Z,40.60
2022-08-03T13:11:55.724Z,40.70
2022-08-03T13:14:20.916Z,41.60
2022-08-03T13:16:49.546Z,39.70
2022-08-03T13:19:18.267Z,40.00
2022-08-03T13:22:02.195Z,40.40
2022-08-03T13:24:34.512Z,41.10
2022-08-03T13:28:01.011Z,39.50
2022-08-03T13:29:55.653Z,40.40
2022-08-03T13:32:24.976Z,40.10
2022-08-03T13:34:53.407Z,39.40
2022-08-03T13:37:22.018Z,39.60
2022-08-03T13:39:58.745Z,40.70
2022-08-03T13:42:30.742Z,41.70
2022-08-03T13:45:01.234Z,39.00
2022-08-03T13:47:32.423Z,38.50
2022-08-03T13:50:04.224Z,40.30
2022-08-03T13:52:35.648Z,39.60
2022-08-03T13:55:06.049Z,39.80
2022-08-03T13:58:03.513Z,39.40
2022-08-03T14:00:29.000Z,39.10
2022-08-03T14:03:06.608Z,39.70
2022-08-03T14:05:41.055Z,38.70
2022-08-03T14:08:09.867Z,39.70
2022-08-03T14:10:39.917Z,44.60
2022-08-03T14:13:08.819Z,41.20
2022-08-03T14:15:38.971Z,40.90
2022-08-03T14:18:12.707Z,40.20
2022-08-03T14:20:48.597Z,39.70
2022-08-03T14:23:18.942Z,40.10
2022-08-03T14:25:51.705Z,39.60
2022-08-03T14:28:23.547Z,38.80
2022-08-03T14:30:54.923Z,39.40
2022-08-03T14:33:24.088Z,39.60
2022-08-03T14:35:53.498Z,39.50
2022-08-03T14:38:22.766Z,39.20
2022-08-03T14:40:53.116Z,38.80
2022-08-03T14:43:21.487Z,40.00
2022-08-03T14:45:52.470Z,41.90
2022-08-03T14:50:29.667Z,43.20
2022-08-03T14:51:11.720Z,41.10
2022-08-03T14:53:40.054Z,40.40
2022-08-03T14:56:10.715Z,41.60
2022-08-03T14:58:39.967Z,41.10
2022-08-03T15:02:05.939Z,40.90
2022-08-03T15:03:58.702Z,42.90
2022-08-03T15:06:27.072Z,40.50
2022-08-03T15:09:21.534Z,41.70
2022-08-03T15:11:44.658Z,41.00
2022-08-03T15:14:13.588Z,41.50
2022-08-03T15:16:43.446Z,40.40
2022-08-03T15:20:01.997Z,40.00
2022-08-03T15:22:02.342Z,39.90
2022-08-03T15:24:31.208Z,38.70
2022-08-03T15:27:00.108Z,38.20
2022-08-03T15:30:06.116Z,40.00
2022-08-03T15:32:17.694Z,38.50
2022-08-03T15:34:50.739Z,38.80
2022-08-03T15:37:20.830Z,39.20
2022-08-03T15:39:59.218Z,38.50
2022-08-03T15:42:30.461Z,38.20
2022-08-03T15:44:59.754Z,42.20
2022-08-03T15:47:28.625Z,40.90
2022-08-03T15:49:58.575Z,42.10
2022-08-03T15:52:27.826Z,42.20
2022-08-03T15:54:56.290Z,43.00
2022-08-03T15:57:25.230Z,41.70
2022-08-03T15:59:53.968Z,40.50
2022-08-03T16:02:23.231Z,41.00
2022-08-03T16:04:52.277Z,41.10
2022-08-03T16:07:58.570Z,41.90
2022-08-03T16:10:31.477Z,42.10
2022-08-03T16:13:00.742Z,42.50
2022-08-03T16:15:29.612Z,43.00
2022-08-03T16:17:58.821Z,42.70
2022-08-03T16:20:30.845Z,43.00
2022-08-03T16:23:11.518Z,42.30
2022-08-03T16:25:41.488Z,42.70
2022-08-03T16:28:14.637Z,43.50
2022-08-03T16:30:45.698Z,43.20
2022-08-03T16:33:17.018Z,42.40
2022-08-03T16:35:46.836Z,42.70
2022-08-03T16:38:19.310Z,43.00
2022-08-03T16:40:51.820Z,42.50
2022-08-03T16:43:22.511Z,43.50
2022-08-03T16:45:51.612Z,42.50
2022-08-03T16:48:21.402Z,42.30
2022-08-03T16:50:50.433Z,44.20
2022-08-03T16:53:51.563Z,42.90
2022-08-03T16:56:10.859Z,43.40
2022-08-03T16:58:42.327Z,42.70
2022-08-03T17:01:21.636Z,41.90
2022-08-03T17:04:02.478Z,43.60
2022-08-03T17:06:34.166Z,42.40
2022-08-03T17:09:08.902Z,42.20
2022-08-03T17:11:43.979Z,42.10
2022-08-03T17:14:14.534Z,42.30
2022-08-03T17:16:52.223Z,43.40
2022-08-03T17:19:24.865Z,46.10
2022-08-03T17:22:01.530Z,44.30
2022-08-03T17:24:41.080Z,42.70
2022-08-03T17:28:42.025Z,44.40
2022-08-03T17:30:07.692Z,43.50
2022-08-03T17:32:42.505Z,43.00
2022-08-03T17:35:12.138Z,43.40
2022-08-03T17:37:57.744Z,43.80
2022-08-03T17:40:29.033Z,43.50
2022-08-03T17:44:12.934Z,43.30
2022-08-03T17:46:10.610Z,43.10
2022-08-03T17:48:41.443Z,43.40
2022-08-03T17:51:18.188Z,43.60
2022-08-03T17:53:54.803Z,43.70
2022-08-03T17:56:40.678Z,43.60
2022-08-03T17:59:51.284Z,44.50
2022-08-03T18:02:51.512Z,46.20
2022-08-03T18:05:22.827Z,44.30
2022-08-03T18:08:14.312Z,46.10
2022-08-03T18:10:49.762Z,44.20
2022-08-03T18:13:25.651Z,45.40
2022-08-03T18:16:02.357Z,45.90
2022-08-03T18:18:33.376Z,45.10
2022-08-03T18:21:04.634Z,45.20
2022-08-03T18:23:37.486Z,45.80
2022-08-03T18:26:12.259Z,46.10
2022-08-03T18:28:44.165Z,47.10
2022-08-03T18:34:16.366Z,45.60
2022-08-03T18:36:57.259Z,46.80
2022-08-03T18:39:26.926Z,46.10
2022-08-03T18:41:55.773Z,48.20
2022-08-03T18:44:37.405Z,49.50
2022-08-03T18:47:51.792Z,48.00
2022-08-03T18:50:31.626Z,48.80
2022-08-03T18:53:16.266Z,48.90
2022-08-03T18:56:02.251Z,48.90
2022-08-03T18:58:38.808Z,47.40
2022-08-03T19:01:59.903Z,48.90
2022-08-03T19:04:10.756Z,49.00
2022-08-03T19:06:44.930Z,48.50
2022-08-03T19:09:22.739Z,48.00
2022-08-03T19:12:14.123Z,48.50
2022-08-03T19:14:53.918Z,48.50
2022-08-03T19:17:29.358Z,48.00
2022-08-03T19:19:59.438Z,48.00
2022-08-03T19:22:33.658Z,48.00
2022-08-03T19:25:02.697Z,48.00
2022-08-03T19:27:32.793Z,48.30
2022-08-03T19:30:04.910Z,48.50
2022-08-03T19:32:39.792Z,48.50
2022-08-03T19:35:18.988Z,49.30
2022-08-03T19:38:05.843Z,49.70
2022-08-03T19:40:38.061Z,49.10
2022-08-03T19:43:17.397Z,49.80
2022-08-03T19:46:04.734Z,50.30
2022-08-03T19:48:39.789Z,49.80
2022-08-03T19:51:12.072Z,49.60
2022-08-03T19:53:45.219Z,50.10
2022-08-03T19:56:16.201Z,49.60
2022-08-03T19:58:45.246Z,49.80
2022-08-03T20:01:22.375Z,50.50
2022-08-03T20:03:53.246Z,50.50
2022-08-03T20:06:23.220Z,50.60
2022-08-03T20:08:52.639Z,50.90
2022-08-03T20:11:28.822Z,50.60
2022-08-03T20:13:58.946Z,52.00
2022-08-03T20:16:27.582Z,51.90
2022-08-03T20:18:57.362Z,51.70
2022-08-03T20:21:32.068Z,52.40
2022-08-03T20:24:23.804Z,51.90
2022-08-03T20:26:55.147Z,52.20
2022-08-03T20:29:42.658Z,52.10
2022-08-03T20:32:24.601Z,52.50
2022-08-03T20:34:54.829Z,52.20
2022-08-03T20:37:24.005Z,52.90
2022-08-03T20:39:54.301Z,52.40
2022-08-03T20:42:22.990Z,52.90
2022-08-03T20:45:05.584Z,53.00
2022-08-03T20:47:50.814Z,52.80
2022-08-03T20:50:22.551Z,52.70
2022-08-03T20:52:51.373Z,52.40
2022-08-03T20:55:47.150Z,52.40
2022-08-03T20:58:08.919Z,52.70
2022-08-03T21:00:37.713Z,54.20
2022-08-03T21:03:06.834Z,53.00
2022-08-03T21:05:48.250Z,52.90
2022-08-03T21:08:22.866Z,53.80
2022-08-03T21:10:53.507Z,53.70
2022-08-03T21:13:28.590Z,53.60
2022-08-03T21:16:11.664Z,53.80
2022-08-03T21:18:46.760Z,53.80
2022-08-03T21:21:19.190Z,54.30
2022-08-03T21:23:51.165Z,54.60
2022-08-03T21:26:21.056Z,55.30
2022-08-03T21:28:51.038Z,55.00
2022-08-03T21:31:25.751Z,55.40
2022-08-03T21:33:57.427Z,55.30
2022-08-03T21:36:29.171Z,55.80
2022-08-03T21:38:58.996Z,55.90
2022-08-03T21:41:28.436Z,56.30
2022-08-03T21:43:57.143Z,56.50
2022-08-03T21:46:28.339Z,57.20
2022-08-03T21:50:05.406Z,56.80
2022-08-03T21:51:53.211Z,56.70
2022-08-03T21:54:22.989Z,56.90
2022-08-03T21:56:55.570Z,56.80
2022-08-03T21:59:26.645Z,56.90
2022-08-03T22:01:58.577Z,56.90
2022-08-03T22:04:53.184Z,57.30
2022-08-03T22:07:19.257Z,57.40
2022-08-03T22:09:51.118Z,57.90
2022-08-03T22:12:24.600Z,58.00
2022-08-03T22:15:00.112Z,59.10
2022-08-03T22:17:55.438Z,58.20
2022-08-03T22:20:21.966Z,58.30
2022-08-03T22:22:56.956Z,59.00
2022-08-03T22:25:29.048Z,58.90
2022-08-03T22:27:59.128Z,59.30
2022-08-03T22:30:27.662Z,59.70
2022-08-03T22:32:57.645Z,59.90
2022-08-03T22:35:27.940Z,59.80
2022-08-03T22:37:59.868Z,60.10
2022-08-03T22:40:28.968Z,60.20
2022-08-03T22:42:58.479Z,60.30
2022-08-03T22:46:07.581Z,61.90
2022-08-03T22:48:17.966Z,60.70
2022-08-03T22:50:47.154Z,61.00
2022-08-03T22:53:20.860Z,61.30
2022-08-03T22:55:53.257Z,61.60
2022-08-03T22:58:22.112Z,62.00
2022-08-03T23:00:54.234Z,62.40
2022-08-03T23:03:25.559Z,62.10
2022-08-03T23:06:15.791Z,62.40
2022-08-03T23:08:48.085Z,63.00
2022-08-03T23:11:19.469Z,63.30
2022-08-03T23:13:53.650Z,63.60
2022-08-03T23:16:28.977Z,63.80
2022-08-03T23:19:06.537Z,63.80
2022-08-03T23:21:53.960Z,64.10
2022-08-03T23:24:31.352Z,64.10
2022-08-03T23:27:00.066Z,64.40
2022-08-03T23:29:31.535Z,66.00
2022-08-03T23:32:02.312Z,64.60
2022-08-03T23:34:50.614Z,64.40
2022-08-03T23:37:20.837Z,64.50
2022-08-03T23:39:50.967Z,63.90
2022-08-03T23:42:21.121Z,64.00
2022-08-03T23:44:55.840Z,64.50
2022-08-03T23:47:46.465Z,65.00
2022-08-03T23:50:14.499Z,65.50
2022-08-03T23:52:52.892Z,65.80
2022-08-03T23:55:37.328Z,65.70
2022-08-03T23:58:16.576Z,65.00
